Caledonia, Illinois
Current Conditions -  °F | °C
As of 5:54 PM on Sunday 21 Dec 2014 (Local Time) from KRFD Reporting Station
Overcast Overcast  
Wind Chill: 26°   Ceiling: 2600
Heat Index: 36°   Visibility: 8mi
Dew Point: 30°   Wind: 16mph
Humidity: 79%   Direction: 160°SSE
Pressure: 30.05"   Gusts: NA
Location:  42.37°N, 88.89°W
Report Text: KRFD 212354Z 16014KT 8SM OVC026 02/M01 A3005 RMK AO2 SLP182 T00221011 10028 20022 56001
Loading
Personal Weather Stations






























Interactive Weather Map New forecast layout! Learn more

10-Day Weather Forecast

Advertisements
Track Severe Weather on mobile